sensor_id;sensor_type;location;lat;lon;timestamp;temperature;humidity
34776;DHT22;20989;52.566;13.346;2022-11-18T00:01:27;21.30;53.00
34776;DHT22;20989;52.566;13.346;2022-11-18T00:04:28;21.30;53.00
34776;DHT22;20989;52.566;13.346;2022-11-18T00:07:28;21.30;52.90
34776;DHT22;20989;52.566;13.346;2022-11-18T00:10:29;21.30;52.90
34776;DHT22;20989;52.566;13.346;2022-11-18T00:13:30;21.30;52.80
34776;DHT22;20989;52.566;13.346;2022-11-18T00:16:53;21.30;52.80
34776;DHT22;20989;52.566;13.346;2022-11-18T00:19:54;21.30;52.80
34776;DHT22;20989;52.566;13.346;2022-11-18T00:22:54;21.30;52.70
34776;DHT22;20989;52.566;13.346;2022-11-18T00:26:08;21.30;52.70
34776;DHT22;20989;52.566;13.346;2022-11-18T00:29:10;21.40;52.80
34776;DHT22;20989;52.566;13.346;2022-11-18T00:32:10;21.40;52.70
34776;DHT22;20989;52.566;13.346;2022-11-18T00:35:11;21.30;52.70
34776;DHT22;20989;52.566;13.346;2022-11-18T00:38:12;21.40;52.70
34776;DHT22;20989;52.566;13.346;2022-11-18T00:41:14;21.40;52.80
34776;DHT22;20989;52.566;13.346;2022-11-18T00:44:15;21.40;52.70
34776;DHT22;20989;52.566;13.346;2022-11-18T00:47:16;21.30;52.70
34776;DHT22;20989;52.566;13.346;2022-11-18T00:50:16;21.30;52.70
34776;DHT22;20989;52.566;13.346;2022-11-18T00:53:18;21.30;52.70
34776;DHT22;20989;52.566;13.346;2022-11-18T00:56:19;21.40;52.80
34776;DHT22;20989;52.566;13.346;2022-11-18T00:59:20;21.40;52.80
34776;DHT22;20989;52.566;13.346;2022-11-18T01:02:20;21.30;52.70
34776;DHT22;20989;52.566;13.346;2022-11-18T01:05:21;21.30;52.80
34776;DHT22;20989;52.566;13.346;2022-11-18T01:08:22;21.30;52.70
34776;DHT22;20989;52.566;13.346;2022-11-18T01:11:23;21.30;52.70
34776;DHT22;20989;52.566;13.346;2022-11-18T01:14:42;21.30;52.80
34776;DHT22;20989;52.566;13.346;2022-11-18T01:17:43;21.30;52.80
34776;DHT22;20989;52.566;13.346;2022-11-18T01:20:44;21.30;52.80
34776;DHT22;20989;52.566;13.346;2022-11-18T01:23:45;21.30;52.80
34776;DHT22;20989;52.566;13.346;2022-11-18T01:26:46;21.30;52.80
34776;DHT22;20989;52.566;13.346;2022-11-18T01:29:47;21.30;52.80
34776;DHT22;20989;52.566;13.346;2022-11-18T01:32:47;21.20;52.80
34776;DHT22;20989;52.566;13.346;2022-11-18T01:35:48;21.20;52.90
34776;DHT22;20989;52.566;13.346;2022-11-18T01:38:49;21.20;52.90
34776;DHT22;20989;52.566;13.346;2022-11-18T01:41:50;21.20;52.90
34776;DHT22;20989;52.566;13.346;2022-11-18T01:45:02;21.20;52.90
34776;DHT22;20989;52.566;13.346;2022-11-18T01:51:17;21.20;53.00
34776;DHT22;20989;52.566;13.346;2022-11-18T01:54:35;21.20;52.90
34776;DHT22;20989;52.566;13.346;2022-11-18T01:57:37;21.20;52.80
34776;DHT22;20989;52.566;13.346;2022-11-18T02:00:38;21.20;52.90
34776;DHT22;20989;52.566;13.346;2022-11-18T02:03:40;21.20;52.80
34776;DHT22;20989;52.566;13.346;2022-11-18T02:06:44;21.20;52.80
34776;DHT22;20989;52.566;13.346;2022-11-18T02:09:46;21.20;52.80
34776;DHT22;20989;52.566;13.346;2022-11-18T02:12:48;21.20;52.70
34776;DHT22;20989;52.566;13.346;2022-11-18T02:16:13;21.20;52.70
34776;DHT22;20989;52.566;13.346;2022-11-18T02:29:23;21.30;52.50
34776;DHT22;20989;52.566;13.346;2022-11-18T02:33:19;21.30;52.50
34776;DHT22;20989;52.566;13.346;2022-11-18T02:36:10;21.30;52.50
34776;DHT22;20989;52.566;13.346;2022-11-18T02:39:18;21.40;52.50
34776;DHT22;20989;52.566;13.346;2022-11-18T02:42:22;21.40;52.50
34776;DHT22;20989;52.566;13.346;2022-11-18T02:45:25;21.40;52.50
34776;DHT22;20989;52.566;13.346;2022-11-18T02:48:29;21.40;52.50
34776;DHT22;20989;52.566;13.346;2022-11-18T02:51:31;21.40;52.50
34776;DHT22;20989;52.566;13.346;2022-11-18T02:54:33;21.30;52.40
34776;DHT22;20989;52.566;13.346;2022-11-18T02:57:36;21.30;52.40
34776;DHT22;20989;52.566;13.346;2022-11-18T03:00:37;21.40;52.50
34776;DHT22;20989;52.566;13.346;2022-11-18T03:03:38;21.30;52.40
34776;DHT22;20989;52.566;13.346;2022-11-18T03:06:41;21.40;52.50
34776;DHT22;20989;52.566;13.346;2022-11-18T03:09:45;21.30;52.40
34776;DHT22;20989;52.566;13.346;2022-11-18T03:16:59;21.30;52.50
34776;DHT22;20989;52.566;13.346;2022-11-18T03:20:29;21.30;52.50
34776;DHT22;20989;52.566;13.346;2022-11-18T03:23:37;21.30;52.60
34776;DHT22;20989;52.566;13.346;2022-11-18T03:26:47;21.30;52.60
34776;DHT22;20989;52.566;13.346;2022-11-18T03:29:58;21.30;52.60
34776;DHT22;20989;52.566;13.346;2022-11-18T03:33:03;21.20;52.50
34776;DHT22;20989;52.566;13.346;2022-11-18T03:36:07;21.20;52.60
34776;DHT22;20989;52.566;13.346;2022-11-18T03:39:10;21.20;52.70
34776;DHT22;20989;52.566;13.346;2022-11-18T03:42:18;21.20;52.70
34776;DHT22;20989;52.566;13.346;2022-11-18T03:45:23;21.20;52.60
34776;DHT22;20989;52.566;13.346;2022-11-18T03:48:29;21.30;52.60
34776;DHT22;20989;52.566;13.346;2022-11-18T03:51:37;21.20;53.10
34776;DHT22;20989;52.566;13.346;2022-11-18T03:54:39;21.20;52.60
34776;DHT22;20989;52.566;13.346;2022-11-18T04:01:05;21.20;52.60
34776;DHT22;20989;52.566;13.346;2022-11-18T04:04:09;21.20;52.50
34776;DHT22;20989;52.566;13.346;2022-11-18T04:11:22;21.20;52.50
34776;DHT22;20989;52.566;13.346;2022-11-18T04:13:48;21.30;52.50
34776;DHT22;20989;52.566;13.346;2022-11-18T04:16:51;21.20;52.50
34776;DHT22;20989;52.566;13.346;2022-11-18T04:19:53;21.20;52.40
34776;DHT22;20989;52.566;13.346;2022-11-18T04:22:54;21.20;52.40
34776;DHT22;20989;52.566;13.346;2022-11-18T04:25:54;21.20;52.50
34776;DHT22;20989;52.566;13.346;2022-11-18T04:28:55;21.20;52.60
34776;DHT22;20989;52.566;13.346;2022-11-18T04:31:56;21.30;52.50
34776;DHT22;20989;52.566;13.346;2022-11-18T04:34:57;21.30;52.50
34776;DHT22;20989;52.566;13.346;2022-11-18T04:37:58;21.20;52.40
34776;DHT22;20989;52.566;13.346;2022-11-18T04:40:59;21.30;52.60
34776;DHT22;20989;52.566;13.346;2022-11-18T04:43:59;21.20;52.50
34776;DHT22;20989;52.566;13.346;2022-11-18T04:47:12;21.20;52.50
34776;DHT22;20989;52.566;13.346;2022-11-18T04:50:12;21.20;52.50
34776;DHT22;20989;52.566;13.346;2022-11-18T04:53:13;21.20;52.50
34776;DHT22;20989;52.566;13.346;2022-11-18T04:56:14;21.20;52.50
34776;DHT22;20989;52.566;13.346;2022-11-18T05:03:12;21.20;52.50
34776;DHT22;20989;52.566;13.346;2022-11-18T05:06:14;21.20;52.50
34776;DHT22;20989;52.566;13.346;2022-11-18T05:09:15;21.20;52.50
34776;DHT22;20989;52.566;13.346;2022-11-18T05:12:15;21.20;52.50
34776;DHT22;20989;52.566;13.346;2022-11-18T05:15:35;21.20;52.60
34776;DHT22;20989;52.566;13.346;2022-11-18T05:18:36;21.20;52.50
34776;DHT22;20989;52.566;13.346;2022-11-18T05:21:36;21.20;52.50
34776;DHT22;20989;52.566;13.346;2022-11-18T05:24:37;21.20;52.50
34776;DHT22;20989;52.566;13.346;2022-11-18T05:27:38;21.20;52.50
34776;DHT22;20989;52.566;13.346;2022-11-18T05:30:39;21.20;52.50
34776;DHT22;20989;52.566;13.346;2022-11-18T05:33:40;21.20;52.50
34776;DHT22;20989;52.566;13.346;2022-11-18T05:36:41;21.30;52.50
34776;DHT22;20989;52.566;13.346;2022-11-18T05:39:43;21.30;52.40
34776;DHT22;20989;52.566;13.346;2022-11-18T05:42:43;21.30;52.40
34776;DHT22;20989;52.566;13.346;2022-11-18T05:46:03;21.30;52.30
34776;DHT22;20989;52.566;13.346;2022-11-18T05:49:04;21.30;52.30
34776;DHT22;20989;52.566;13.346;2022-11-18T05:52:05;21.30;52.80
34776;DHT22;20989;52.566;13.346;2022-11-18T05:55:06;21.30;52.20
34776;DHT22;20989;52.566;13.346;2022-11-18T05:58:07;21.30;52.20
34776;DHT22;20989;52.566;13.346;2022-11-18T06:01:08;21.30;52.20
34776;DHT22;20989;52.566;13.346;2022-11-18T06:04:17;21.30;52.20
34776;DHT22;20989;52.566;13.346;2022-11-18T06:07:21;21.30;52.10
34776;DHT22;20989;52.566;13.346;2022-11-18T06:10:35;21.30;52.10
34776;DHT22;20989;52.566;13.346;2022-11-18T06:13:41;21.30;52.10
34776;DHT22;20989;52.566;13.346;2022-11-18T06:16:49;21.40;52.20
34776;DHT22;20989;52.566;13.346;2022-11-18T06:19:51;21.50;52.20
34776;DHT22;20989;52.566;13.346;2022-11-18T06:22:56;21.50;52.10
34776;DHT22;20989;52.566;13.346;2022-11-18T06:25:57;21.60;51.90
34776;DHT22;20989;52.566;13.346;2022-11-18T06:28:58;21.60;51.80
34776;DHT22;20989;52.566;13.346;2022-11-18T06:31:59;21.60;51.80
34776;DHT22;20989;52.566;13.346;2022-11-18T06:34:59;21.60;51.60
34776;DHT22;20989;52.566;13.346;2022-11-18T06:38:00;21.60;51.50
34776;DHT22;20989;52.566;13.346;2022-11-18T06:41:01;21.60;51.40
34776;DHT22;20989;52.566;13.346;2022-11-18T06:44:02;21.60;51.10
34776;DHT22;20989;52.566;13.346;2022-11-18T06:47:03;21.70;51.10
34776;DHT22;20989;52.566;13.346;2022-11-18T06:50:04;21.70;52.00
34776;DHT22;20989;52.566;13.346;2022-11-18T06:53:05;21.90;51.60
34776;DHT22;20989;52.566;13.346;2022-11-18T06:56:07;21.90;51.50
34776;DHT22;20989;52.566;13.346;2022-11-18T06:59:08;21.90;51.20
34776;DHT22;20989;52.566;13.346;2022-11-18T07:02:09;22.00;51.40
34776;DHT22;20989;52.566;13.346;2022-11-18T07:05:10;22.00;51.50
34776;DHT22;20989;52.566;13.346;2022-11-18T07:08:10;22.10;51.40
34776;DHT22;20989;52.566;13.346;2022-11-18T07:11:14;22.10;51.00
34776;DHT22;20989;52.566;13.346;2022-11-18T07:14:15;22.20;50.80
34776;DHT22;20989;52.566;13.346;2022-11-18T07:17:15;22.30;51.10
34776;DHT22;20989;52.566;13.346;2022-11-18T07:20:16;22.30;51.20
34776;DHT22;20989;52.566;13.346;2022-11-18T07:23:17;22.30;50.90
34776;DHT22;20989;52.566;13.346;2022-11-18T07:26:19;22.30;51.30
34776;DHT22;20989;52.566;13.346;2022-11-18T07:29:19;22.30;51.10
34776;DHT22;20989;52.566;13.346;2022-11-18T07:32:20;22.30;51.00
34776;DHT22;20989;52.566;13.346;2022-11-18T07:35:21;22.30;50.90
34776;DHT22;20989;52.566;13.346;2022-11-18T07:38:21;22.30;50.80
34776;DHT22;20989;52.566;13.346;2022-11-18T07:41:24;22.30;50.70
34776;DHT22;20989;52.566;13.346;2022-11-18T07:44:26;22.30;50.70
34776;DHT22;20989;52.566;13.346;2022-11-18T07:47:26;22.30;50.60
34776;DHT22;20989;52.566;13.346;2022-11-18T07:50:27;22.30;50.60
34776;DHT22;20989;52.566;13.346;2022-11-18T07:53:32;22.30;50.60
34776;DHT22;20989;52.566;13.346;2022-11-18T07:56:33;22.30;50.50
34776;DHT22;20989;52.566;13.346;2022-11-18T07:59:34;22.30;50.50
34776;DHT22;20989;52.566;13.346;2022-11-18T08:02:34;22.20;50.50
34776;DHT22;20989;52.566;13.346;2022-11-18T08:05:35;22.20;50.50
34776;DHT22;20989;52.566;13.346;2022-11-18T08:08:36;22.20;50.50
34776;DHT22;20989;52.566;13.346;2022-11-18T08:11:37;22.20;50.60
34776;DHT22;20989;52.566;13.346;2022-11-18T08:14:38;22.20;50.50
34776;DHT22;20989;52.566;13.346;2022-11-18T08:17:38;22.20;50.50
34776;DHT22;20989;52.566;13.346;2022-11-18T08:20:40;22.20;50.50
34776;DHT22;20989;52.566;13.346;2022-11-18T08:23:41;22.20;50.60
34776;DHT22;20989;52.566;13.346;2022-11-18T08:26:41;22.20;50.90
34776;DHT22;20989;52.566;13.346;2022-11-18T08:29:42;22.20;50.50
34776;DHT22;20989;52.566;13.346;2022-11-18T08:32:43;22.20;50.10
34776;DHT22;20989;52.566;13.346;2022-11-18T08:35:44;22.30;50.20
34776;DHT22;20989;52.566;13.346;2022-11-18T08:38:44;22.30;50.10
34776;DHT22;20989;52.566;13.346;2022-11-18T08:41:47;22.30;50.20
34776;DHT22;20989;52.566;13.346;2022-11-18T08:44:48;22.30;50.30
34776;DHT22;20989;52.566;13.346;2022-11-18T08:47:49;22.20;50.40
34776;DHT22;20989;52.566;13.346;2022-11-18T08:50:50;22.20;50.50
34776;DHT22;20989;52.566;13.346;2022-11-18T08:53:51;22.20;50.60
34776;DHT22;20989;52.566;13.346;2022-11-18T08:56:51;22.10;50.80
34776;DHT22;20989;52.566;13.346;2022-11-18T08:59:52;22.10;50.60
34776;DHT22;20989;52.566;13.346;2022-11-18T09:02:53;22.10;50.60
34776;DHT22;20989;52.566;13.346;2022-11-18T09:06:05;22.10;50.70
34776;DHT22;20989;52.566;13.346;2022-11-18T09:09:06;22.10;50.80
34776;DHT22;20989;52.566;13.346;2022-11-18T09:12:07;22.00;51.40
34776;DHT22;20989;52.566;13.346;2022-11-18T09:15:08;22.00;51.00
34776;DHT22;20989;52.566;13.346;2022-11-18T09:18:09;21.90;51.90
34776;DHT22;20989;52.566;13.346;2022-11-18T09:21:10;21.80;51.40
34776;DHT22;20989;52.566;13.346;2022-11-18T09:24:11;21.70;51.60
34776;DHT22;20989;52.566;13.346;2022-11-18T09:27:11;21.70;52.00
34776;DHT22;20989;52.566;13.346;2022-11-18T09:30:12;21.70;52.30
34776;DHT22;20989;52.566;13.346;2022-11-18T09:33:13;21.60;52.80
34776;DHT22;20989;52.566;13.346;2022-11-18T09:36:18;21.60;53.10
34776;DHT22;20989;52.566;13.346;2022-11-18T09:39:19;21.80;52.60
34776;DHT22;20989;52.566;13.346;2022-11-18T09:42:35;21.80;52.30
34776;DHT22;20989;52.566;13.346;2022-11-18T09:45:43;21.90;52.80
34776;DHT22;20989;52.566;13.346;2022-11-18T09:48:45;21.80;52.40
34776;DHT22;20989;52.566;13.346;2022-11-18T09:52:11;21.80;52.80
34776;DHT22;20989;52.566;13.346;2022-11-18T09:55:16;21.80;52.30
34776;DHT22;20989;52.566;13.346;2022-11-18T09:58:21;21.70;52.70
34776;DHT22;20989;52.566;13.346;2022-11-18T10:01:26;21.80;52.70
34776;DHT22;20989;52.566;13.346;2022-11-18T10:04:27;21.80;52.60
34776;DHT22;20989;52.566;13.346;2022-11-18T10:07:35;21.80;52.50
34776;DHT22;20989;52.566;13.346;2022-11-18T10:11:01;21.80;52.40
34776;DHT22;20989;52.566;13.346;2022-11-18T10:17:38;21.80;52.40
34776;DHT22;20989;52.566;13.346;2022-11-18T10:21:07;21.80;52.30
34776;DHT22;20989;52.566;13.346;2022-11-18T10:24:18;21.70;52.40
34776;DHT22;20989;52.566;13.346;2022-11-18T10:27:20;21.60;51.90
34776;DHT22;20989;52.566;13.346;2022-11-18T10:30:23;21.60;51.10
34776;DHT22;20989;52.566;13.346;2022-11-18T10:33:26;21.70;51.10
34776;DHT22;20989;52.566;13.346;2022-11-18T10:36:29;21.70;51.60
34776;DHT22;20989;52.566;13.346;2022-11-18T10:39:32;21.70;51.40
34776;DHT22;20989;52.566;13.346;2022-11-18T10:42:43;21.70;51.60
34776;DHT22;20989;52.566;13.346;2022-11-18T10:45:45;21.60;51.00
34776;DHT22;20989;52.566;13.346;2022-11-18T10:48:46;21.60;51.50
34776;DHT22;20989;52.566;13.346;2022-11-18T10:52:04;21.60;51.40
34776;DHT22;20989;52.566;13.346;2022-11-18T10:55:23;21.60;51.60
34776;DHT22;20989;52.566;13.346;2022-11-18T10:58:24;21.60;51.60
34776;DHT22;20989;52.566;13.346;2022-11-18T11:01:25;21.50;51.50
34776;DHT22;20989;52.566;13.346;2022-11-18T11:04:27;21.40;51.80
34776;DHT22;20989;52.566;13.346;2022-11-18T11:07:30;21.50;51.80
34776;DHT22;20989;52.566;13.346;2022-11-18T11:10:32;21.50;51.90
34776;DHT22;20989;52.566;13.346;2022-11-18T11:13:37;21.50;51.90
34776;DHT22;20989;52.566;13.346;2022-11-18T11:16:55;21.50;51.80
34776;DHT22;20989;52.566;13.346;2022-11-18T11:20:19;21.60;51.50
34776;DHT22;20989;52.566;13.346;2022-11-18T11:23:24;21.60;51.80
34776;DHT22;20989;52.566;13.346;2022-11-18T11:30:06;21.60;51.70
34776;DHT22;20989;52.566;13.346;2022-11-18T11:33:28;21.50;51.80
34776;DHT22;20989;52.566;13.346;2022-11-18T11:36:50;21.50;52.10
34776;DHT22;20989;52.566;13.346;2022-11-18T11:50:12;21.60;51.30
34776;DHT22;20989;52.566;13.346;2022-11-18T12:00:17;21.40;52.10
34776;DHT22;20989;52.566;13.346;2022-11-18T12:03:38;21.40;51.90
34776;DHT22;20989;52.566;13.346;2022-11-18T12:06:45;21.50;51.40
34776;DHT22;20989;52.566;13.346;2022-11-18T12:16:59;20.90;36.10
34776;DHT22;20989;52.566;13.346;2022-11-18T12:23:40;21.00;38.80
34776;DHT22;20989;52.566;13.346;2022-11-18T12:26:40;21.10;42.60
34776;DHT22;20989;52.566;13.346;2022-11-18T12:32:54;21.30;43.30
34776;DHT22;20989;52.566;13.346;2022-11-18T12:35:56;21.40;42.10
34776;DHT22;20989;52.566;13.346;2022-11-18T12:38:58;21.50;42.70
34776;DHT22;20989;52.566;13.346;2022-11-18T12:42:01;21.60;45.70
34776;DHT22;20989;52.566;13.346;2022-11-18T12:48:40;21.70;45.00
34776;DHT22;20989;52.566;13.346;2022-11-18T12:51:41;21.80;45.10
34776;DHT22;20989;52.566;13.346;2022-11-18T12:54:47;21.90;45.50
34776;DHT22;20989;52.566;13.346;2022-11-18T12:57:48;21.90;45.70
34776;DHT22;20989;52.566;13.346;2022-11-18T13:00:49;22.00;45.60
34776;DHT22;20989;52.566;13.346;2022-11-18T13:04:10;22.00;46.30
34776;DHT22;20989;52.566;13.346;2022-11-18T13:07:12;22.10;46.50
34776;DHT22;20989;52.566;13.346;2022-11-18T13:10:52;22.10;46.20
34776;DHT22;20989;52.566;13.346;2022-11-18T13:14:40;22.20;46.90
34776;DHT22;20989;52.566;13.346;2022-11-18T13:18:18;22.20;46.80
34776;DHT22;20989;52.566;13.346;2022-11-18T13:21:20;22.30;47.10
34776;DHT22;20989;52.566;13.346;2022-11-18T13:24:48;22.30;47.00
34776;DHT22;20989;52.566;13.346;2022-11-18T13:28:05;22.40;47.10
34776;DHT22;20989;52.566;13.346;2022-11-18T13:34:51;22.30;47.30
34776;DHT22;20989;52.566;13.346;2022-11-18T13:37:58;22.30;47.30
34776;DHT22;20989;52.566;13.346;2022-11-18T13:41:00;22.30;47.20
34776;DHT22;20989;52.566;13.346;2022-11-18T13:44:23;22.30;48.30
34776;DHT22;20989;52.566;13.346;2022-11-18T13:47:45;22.30;47.70
34776;DHT22;20989;52.566;13.346;2022-11-18T13:50:49;22.40;47.80
34776;DHT22;20989;52.566;13.346;2022-11-18T13:53:54;22.40;47.60
34776;DHT22;20989;52.566;13.346;2022-11-18T13:56:55;22.40;47.80
34776;DHT22;20989;52.566;13.346;2022-11-18T14:00:00;22.40;47.90
34776;DHT22;20989;52.566;13.346;2022-11-18T14:06:35;22.30;47.90
34776;DHT22;20989;52.566;13.346;2022-11-18T14:09:36;22.30;48.10
34776;DHT22;20989;52.566;13.346;2022-11-18T14:12:37;22.20;48.10
34776;DHT22;20989;52.566;13.346;2022-11-18T14:15:38;22.20;48.20
34776;DHT22;20989;52.566;13.346;2022-11-18T14:18:44;22.20;48.40
34776;DHT22;20989;52.566;13.346;2022-11-18T14:21:46;22.10;48.40
34776;DHT22;20989;52.566;13.346;2022-11-18T14:31:29;22.20;48.80
34776;DHT22;20989;52.566;13.346;2022-11-18T14:34:30;22.10;48.70
34776;DHT22;20989;52.566;13.346;2022-11-18T14:37:31;22.10;48.90
34776;DHT22;20989;52.566;13.346;2022-11-18T14:40:31;22.10;48.90
34776;DHT22;20989;52.566;13.346;2022-11-18T14:43:32;22.20;48.90
34776;DHT22;20989;52.566;13.346;2022-11-18T14:46:36;22.10;48.80
34776;DHT22;20989;52.566;13.346;2022-11-18T14:49:37;22.10;49.00
34776;DHT22;20989;52.566;13.346;2022-11-18T14:52:38;22.00;49.20
34776;DHT22;20989;52.566;13.346;2022-11-18T14:55:39;22.00;49.20
34776;DHT22;20989;52.566;13.346;2022-11-18T14:58:40;22.00;47.90
34776;DHT22;20989;52.566;13.346;2022-11-18T15:01:42;22.00;47.80
34776;DHT22;20989;52.566;13.346;2022-11-18T15:04:43;21.90;48.60
34776;DHT22;20989;52.566;13.346;2022-11-18T15:07:43;21.90;48.70
34776;DHT22;20989;52.566;13.346;2022-11-18T15:10:44;21.90;47.90
34776;DHT22;20989;52.566;13.346;2022-11-18T15:13:45;21.90;46.10
34776;DHT22;20989;52.566;13.346;2022-11-18T15:16:46;21.80;46.70
34776;DHT22;20989;52.566;13.346;2022-11-18T15:19:47;21.90;46.80
34776;DHT22;20989;52.566;13.346;2022-11-18T15:22:47;21.90;47.20
34776;DHT22;20989;52.566;13.346;2022-11-18T15:25:48;22.00;47.30
34776;DHT22;20989;52.566;13.346;2022-11-18T15:28:52;22.00;47.20
34776;DHT22;20989;52.566;13.346;2022-11-18T15:31:53;21.90;46.10
34776;DHT22;20989;52.566;13.346;2022-11-18T15:34:54;21.90;45.40
34776;DHT22;20989;52.566;13.346;2022-11-18T15:37:54;21.90;46.70
34776;DHT22;20989;52.566;13.346;2022-11-18T15:40:56;21.90;47.20
34776;DHT22;20989;52.566;13.346;2022-11-18T15:43:59;21.90;47.10
34776;DHT22;20989;52.566;13.346;2022-11-18T15:47:00;21.90;47.60
34776;DHT22;20989;52.566;13.346;2022-11-18T15:50:01;21.80;47.20
34776;DHT22;20989;52.566;13.346;2022-11-18T15:53:01;21.70;47.60
34776;DHT22;20989;52.566;13.346;2022-11-18T15:59:18;21.80;48.00
34776;DHT22;20989;52.566;13.346;2022-11-18T16:02:18;21.70;47.80
34776;DHT22;20989;52.566;13.346;2022-11-18T16:05:19;21.70;48.60
34776;DHT22;20989;52.566;13.346;2022-11-18T16:08:20;21.70;47.90
34776;DHT22;20989;52.566;13.346;2022-11-18T16:11:20;21.60;47.90
34776;DHT22;20989;52.566;13.346;2022-11-18T16:14:40;21.60;48.30
34776;DHT22;20989;52.566;13.346;2022-11-18T16:17:40;21.70;48.60
34776;DHT22;20989;52.566;13.346;2022-11-18T16:20:41;21.70;48.30
34776;DHT22;20989;52.566;13.346;2022-11-18T16:23:42;21.50;48.50
34776;DHT22;20989;52.566;13.346;2022-11-18T16:26:42;21.50;48.80
34776;DHT22;20989;52.566;13.346;2022-11-18T16:29:43;21.50;48.70
34776;DHT22;20989;52.566;13.346;2022-11-18T16:32:44;21.70;48.70
34776;DHT22;20989;52.566;13.346;2022-11-18T16:35:48;21.80;48.50
34776;DHT22;20989;52.566;13.346;2022-11-18T16:38:48;21.90;48.30
34776;DHT22;20989;52.566;13.346;2022-11-18T16:41:54;21.80;48.10
34776;DHT22;20989;52.566;13.346;2022-11-18T16:44:55;21.80;48.30
34776;DHT22;20989;52.566;13.346;2022-11-18T16:47:56;21.90;48.30
34776;DHT22;20989;52.566;13.346;2022-11-18T16:51:21;21.90;47.80
34776;DHT22;20989;52.566;13.346;2022-11-18T16:54:24;21.90;48.10
34776;DHT22;20989;52.566;13.346;2022-11-18T16:57:25;21.90;48.30
34776;DHT22;20989;52.566;13.346;2022-11-18T17:00:26;21.90;48.50
34776;DHT22;20989;52.566;13.346;2022-11-18T17:03:26;21.90;48.40
34776;DHT22;20989;52.566;13.346;2022-11-18T17:06:29;21.90;48.60
34776;DHT22;20989;52.566;13.346;2022-11-18T17:09:30;21.90;48.70
34776;DHT22;20989;52.566;13.346;2022-11-18T17:12:31;21.80;48.50
34776;DHT22;20989;52.566;13.346;2022-11-18T17:15:34;21.80;48.10
34776;DHT22;20989;52.566;13.346;2022-11-18T17:18:35;21.80;48.40
34776;DHT22;20989;52.566;13.346;2022-11-18T17:21:36;21.90;48.40
34776;DHT22;20989;52.566;13.346;2022-11-18T17:24:37;21.90;48.80
34776;DHT22;20989;52.566;13.346;2022-11-18T17:27:37;21.80;48.20
34776;DHT22;20989;52.566;13.346;2022-11-18T17:30:38;21.30;36.40
34776;DHT22;20989;52.566;13.346;2022-11-18T17:33:39;21.30;43.40
34776;DHT22;20989;52.566;13.346;2022-11-18T17:36:41;21.50;44.20
34776;DHT22;20989;52.566;13.346;2022-11-18T17:39:41;21.50;44.10
34776;DHT22;20989;52.566;13.346;2022-11-18T17:42:42;21.60;45.60
34776;DHT22;20989;52.566;13.346;2022-11-18T17:45:48;21.60;45.60
34776;DHT22;20989;52.566;13.346;2022-11-18T17:48:53;21.60;44.70
34776;DHT22;20989;52.566;13.346;2022-11-18T17:51:54;21.60;45.90
34776;DHT22;20989;52.566;13.346;2022-11-18T17:54:54;21.70;45.30
34776;DHT22;20989;52.566;13.346;2022-11-18T17:57:55;21.60;46.20
34776;DHT22;20989;52.566;13.346;2022-11-18T18:00:56;21.70;45.40
34776;DHT22;20989;52.566;13.346;2022-11-18T18:04:05;21.70;46.30
34776;DHT22;20989;52.566;13.346;2022-11-18T18:07:05;21.60;46.20
34776;DHT22;20989;52.566;13.346;2022-11-18T18:10:06;21.60;46.10
34776;DHT22;20989;52.566;13.346;2022-11-18T18:13:08;21.70;47.10
34776;DHT22;20989;52.566;13.346;2022-11-18T18:16:28;21.60;47.20
34776;DHT22;20989;52.566;13.346;2022-11-18T18:19:30;21.60;46.80
34776;DHT22;20989;52.566;13.346;2022-11-18T18:22:30;21.60;46.70
34776;DHT22;20989;52.566;13.346;2022-11-18T18:25:32;21.60;47.30
34776;DHT22;20989;52.566;13.346;2022-11-18T18:28:33;21.60;47.20
34776;DHT22;20989;52.566;13.346;2022-11-18T18:31:35;21.60;47.00
34776;DHT22;20989;52.566;13.346;2022-11-18T18:34:36;21.60;47.70
34776;DHT22;20989;52.566;13.346;2022-11-18T18:37:37;21.60;47.50
34776;DHT22;20989;52.566;13.346;2022-11-18T18:40:38;21.60;47.60
34776;DHT22;20989;52.566;13.346;2022-11-18T18:43:39;21.60;47.80
34776;DHT22;20989;52.566;13.346;2022-11-18T18:46:39;21.50;47.90
34776;DHT22;20989;52.566;13.346;2022-11-18T18:49:40;21.60;47.90
34776;DHT22;20989;52.566;13.346;2022-11-18T18:52:41;21.60;47.80
34776;DHT22;20989;52.566;13.346;2022-11-18T18:55:41;21.60;47.70
34776;DHT22;20989;52.566;13.346;2022-11-18T18:58:42;21.60;48.30
34776;DHT22;20989;52.566;13.346;2022-11-18T19:01:42;21.50;48.70
34776;DHT22;20989;52.566;13.346;2022-11-18T19:04:43;21.50;48.50
34776;DHT22;20989;52.566;13.346;2022-11-18T19:07:45;21.40;48.80
34776;DHT22;20989;52.566;13.346;2022-11-18T19:10:46;21.40;48.70
34776;DHT22;20989;52.566;13.346;2022-11-18T19:13:47;21.50;48.50
34776;DHT22;20989;52.566;13.346;2022-11-18T19:16:47;21.50;48.90
34776;DHT22;20989;52.566;13.346;2022-11-18T19:19:48;21.40;49.10
34776;DHT22;20989;52.566;13.346;2022-11-18T19:23:09;21.40;49.50
34776;DHT22;20989;52.566;13.346;2022-11-18T19:26:09;21.40;48.70
34776;DHT22;20989;52.566;13.346;2022-11-18T19:29:10;21.40;48.50
34776;DHT22;20989;52.566;13.346;2022-11-18T19:32:11;21.40;49.40
34776;DHT22;20989;52.566;13.346;2022-11-18T19:35:11;21.30;49.40
34776;DHT22;20989;52.566;13.346;2022-11-18T19:38:12;21.30;49.40
34776;DHT22;20989;52.566;13.346;2022-11-18T19:41:13;21.30;49.40
34776;DHT22;20989;52.566;13.346;2022-11-18T19:44:13;21.40;49.20
34776;DHT22;20989;52.566;13.346;2022-11-18T19:47:14;21.50;49.00
34776;DHT22;20989;52.566;13.346;2022-11-18T19:50:15;21.50;49.40
34776;DHT22;20989;52.566;13.346;2022-11-18T19:53:16;21.40;49.00
34776;DHT22;20989;52.566;13.346;2022-11-18T19:56:32;21.40;49.80
34776;DHT22;20989;52.566;13.346;2022-11-18T19:59:33;21.40;49.50
34776;DHT22;20989;52.566;13.346;2022-11-18T20:02:34;21.40;49.50
34776;DHT22;20989;52.566;13.346;2022-11-18T20:05:34;21.40;49.10
34776;DHT22;20989;52.566;13.346;2022-11-18T20:08:54;21.10;44.80
34776;DHT22;20989;52.566;13.346;2022-11-18T20:11:55;21.10;46.10
34776;DHT22;20989;52.566;13.346;2022-11-18T20:14:56;21.20;47.60
34776;DHT22;20989;52.566;13.346;2022-11-18T20:17:56;21.20;47.80
34776;DHT22;20989;52.566;13.346;2022-11-18T20:21:11;21.10;48.60
34776;DHT22;20989;52.566;13.346;2022-11-18T20:24:16;21.10;48.40
34776;DHT22;20989;52.566;13.346;2022-11-18T20:27:17;21.00;48.00
34776;DHT22;20989;52.566;13.346;2022-11-18T20:30:18;21.10;49.00